<?xml version="1.0" encoding="UTF-8" standalone="no" ?>
<gpx xmlns="http://www.topografix.com/GPX/1/1" xmlns:xsi="http://www.w3.org/2001/XMLSchema-instance" xsi:schemaLocation="http://www.topografix.com/GPX/1/1 http://www.topografix.com/GPX/1/1/gpx.xsd" version="1.1" creator="VisuGPX - https://www.visugpx.com">
  <metadata>
    <name>2022-11-12 16:50:12</name>
    <desc><![CDATA[autour de Mercurey]]></desc>
  </metadata>
  <trk>
    <name><![CDATA[2022-11-12 16:50:12]]></name>
    <trkseg>
      <trkpt lat="46.83365" lon="4.72148">
        <ele>103</ele>
        <time>2022-11-12T13:39:27Z</time>
      </trkpt>
      <trkpt lat="46.83372" lon="4.72148">
        <ele>103</ele>
        <time>2022-11-12T13:39:52Z</time>
      </trkpt>
      <trkpt lat="46.83377" lon="4.72151">
        <ele>103</ele>
        <time>2022-11-12T13:40:11Z</time>
      </trkpt>
      <trkpt lat="46.83376" lon="4.72163">
        <ele>103</ele>
        <time>2022-11-12T13:40:29Z</time>
      </trkpt>
      <trkpt lat="46.83366" lon="4.72169">
        <ele>103</ele>
        <time>2022-11-12T13:40:48Z</time>
      </trkpt>
      <trkpt lat="46.83359" lon="4.72174">
        <ele>103</ele>
        <time>2022-11-12T13:40:56Z</time>
      </trkpt>
      <trkpt lat="46.83351" lon="4.72188">
        <ele>103</ele>
        <time>2022-11-12T13:41:12Z</time>
      </trkpt>
      <trkpt lat="46.83357" lon="4.72204">
        <ele>103</ele>
        <time>2022-11-12T13:41:28Z</time>
      </trkpt>
      <trkpt lat="46.83357" lon="4.72213">
        <ele>103</ele>
        <time>2022-11-12T13:41:46Z</time>
      </trkpt>
      <trkpt lat="46.83354" lon="4.72217">
        <ele>103</ele>
        <time>2022-11-12T13:42:07Z</time>
      </trkpt>
      <trkpt lat="46.83355" lon="4.7222">
        <ele>103</ele>
        <time>2022-11-12T13:42:18Z</time>
      </trkpt>
      <trkpt lat="46.83349" lon="4.72236">
        <ele>102.04</ele>
        <time>2022-11-12T13:42:33Z</time>
      </trkpt>
      <trkpt lat="46.83354" lon="4.72233">
        <ele>100.6</ele>
        <time>2022-11-12T13:42:47Z</time>
      </trkpt>
      <trkpt lat="46.83352" lon="4.72238">
        <ele>100.6</ele>
        <time>2022-11-12T13:42:54Z</time>
      </trkpt>
      <trkpt lat="46.83349" lon="4.72239">
        <ele>100.6</ele>
        <time>2022-11-12T13:42:58Z</time>
      </trkpt>
      <trkpt lat="46.83345" lon="4.72241">
        <ele>102.52</ele>
        <time>2022-11-12T13:43:02Z</time>
      </trkpt>
      <trkpt lat="46.8334" lon="4.72246">
        <ele>102.52</ele>
        <time>2022-11-12T13:43:16Z</time>
      </trkpt>
      <trkpt lat="46.83327" lon="4.72267">
        <ele>102.52</ele>
        <time>2022-11-12T13:43:35Z</time>
      </trkpt>
      <trkpt lat="46.83313" lon="4.72292">
        <ele>101.56</ele>
        <time>2022-11-12T13:43:55Z</time>
      </trkpt>
      <trkpt lat="46.83303" lon="4.7231">
        <ele>101.56</ele>
        <time>2022-11-12T13:44:09Z</time>
      </trkpt>
      <trkpt lat="46.83291" lon="4.72332">
        <ele>101.08</ele>
        <time>2022-11-12T13:44:27Z</time>
      </trkpt>
      <trkpt lat="46.83278" lon="4.7236">
        <ele>100.6</ele>
        <time>2022-11-12T13:44:47Z</time>
      </trkpt>
      <trkpt lat="46.8325" lon="4.72397">
        <ele>100.6</ele>
        <time>2022-11-12T13:45:14Z</time>
      </trkpt>
      <trkpt lat="46.83231" lon="4.72431">
        <ele>100.11</ele>
        <time>2022-11-12T13:45:35Z</time>
      </trkpt>
      <trkpt lat="46.83238" lon="4.72437">
        <ele>100.11</ele>
        <time>2022-11-12T13:45:50Z</time>
      </trkpt>
      <trkpt lat="46.83245" lon="4.72451">
        <ele>99.15</ele>
        <time>2022-11-12T13:46:11Z</time>
      </trkpt>
      <trkpt lat="46.83263" lon="4.72456">
        <ele>99.15</ele>
        <time>2022-11-12T13:46:29Z</time>
      </trkpt>
      <trkpt lat="46.83287" lon="4.72468">
        <ele>99.15</ele>
        <time>2022-11-12T13:46:53Z</time>
      </trkpt>
      <trkpt lat="46.83296" lon="4.72471">
        <ele>99.15</ele>
        <time>2022-11-12T13:47:12Z</time>
      </trkpt>
      <trkpt lat="46.83294" lon="4.72466">
        <ele>99.15</ele>
        <time>2022-11-12T13:47:42Z</time>
      </trkpt>
      <trkpt lat="46.83313" lon="4.72473">
        <ele>99.15</ele>
        <time>2022-11-12T13:48:04Z</time>
      </trkpt>
      <trkpt lat="46.83317" lon="4.72473">
        <ele>99.15</ele>
        <time>2022-11-12T13:48:08Z</time>
      </trkpt>
      <trkpt lat="46.83333" lon="4.72476">
        <ele>100.6</ele>
        <time>2022-11-12T13:48:26Z</time>
      </trkpt>
      <trkpt lat="46.83353" lon="4.7248">
        <ele>101.56</ele>
        <time>2022-11-12T13:48:46Z</time>
      </trkpt>
      <trkpt lat="46.83361" lon="4.72487">
        <ele>105.4</ele>
        <time>2022-11-12T13:48:55Z</time>
      </trkpt>
      <trkpt lat="46.83362" lon="4.72487">
        <ele>109.25</ele>
        <time>2022-11-12T13:48:56Z</time>
      </trkpt>
      <trkpt lat="46.83363" lon="4.72488">
        <ele>112.61</ele>
        <time>2022-11-12T13:48:57Z</time>
      </trkpt>
      <trkpt lat="46.83364" lon="4.72489">
        <ele>115.98</ele>
        <time>2022-11-12T13:48:58Z</time>
      </trkpt>
      <trkpt lat="46.83364" lon="4.7249">
        <ele>119.82</ele>
        <time>2022-11-12T13:48:59Z</time>
      </trkpt>
      <trkpt lat="46.83365" lon="4.7249">
        <ele>122.71</ele>
        <time>2022-11-12T13:49:00Z</time>
      </trkpt>
      <trkpt lat="46.83369" lon="4.72492">
        <ele>131.84</ele>
        <time>2022-11-12T13:49:03Z</time>
      </trkpt>
      <trkpt lat="46.83371" lon="4.72493">
        <ele>137.13</ele>
        <time>2022-11-12T13:49:05Z</time>
      </trkpt>
      <trkpt lat="46.83373" lon="4.72494">
        <ele>141.93</ele>
        <time>2022-11-12T13:49:07Z</time>
      </trkpt>
      <trkpt lat="46.83374" lon="4.72495">
        <ele>149.62</ele>
        <time>2022-11-12T13:49:09Z</time>
      </trkpt>
      <trkpt lat="46.83375" lon="4.72496">
        <ele>151.54</ele>
        <time>2022-11-12T13:49:11Z</time>
      </trkpt>
      <trkpt lat="46.83377" lon="4.72497">
        <ele>155.39</ele>
        <time>2022-11-12T13:49:13Z</time>
      </trkpt>
      <trkpt lat="46.83379" lon="4.72498">
        <ele>159.72</ele>
        <time>2022-11-12T13:49:15Z</time>
      </trkpt>
      <trkpt lat="46.8338" lon="4.72498">
        <ele>163.08</ele>
        <time>2022-11-12T13:49:17Z</time>
      </trkpt>
      <trkpt lat="46.83382" lon="4.72499">
        <ele>166.45</ele>
        <time>2022-11-12T13:49:19Z</time>
      </trkpt>
      <trkpt lat="46.83383" lon="4.725">
        <ele>169.81</ele>
        <time>2022-11-12T13:49:21Z</time>
      </trkpt>
      <trkpt lat="46.83386" lon="4.72501">
        <ele>174.14</ele>
        <time>2022-11-12T13:49:24Z</time>
      </trkpt>
      <trkpt lat="46.83389" lon="4.72502">
        <ele>178.46</ele>
        <time>2022-11-12T13:49:27Z</time>
      </trkpt>
      <trkpt lat="46.83392" lon="4.72501">
        <ele>181.83</ele>
        <time>2022-11-12T13:49:30Z</time>
      </trkpt>
      <trkpt lat="46.83394" lon="4.72502">
        <ele>185.19</ele>
        <time>2022-11-12T13:49:33Z</time>
      </trkpt>
      <trkpt lat="46.83397" lon="4.72502">
        <ele>188.56</ele>
        <time>2022-11-12T13:49:36Z</time>
      </trkpt>
      <trkpt lat="46.83401" lon="4.72504">
        <ele>192.4</ele>
        <time>2022-11-12T13:49:40Z</time>
      </trkpt>
      <trkpt lat="46.83403" lon="4.72506">
        <ele>195.77</ele>
        <time>2022-11-12T13:49:43Z</time>
      </trkpt>
      <trkpt lat="46.83404" lon="4.72506">
        <ele>196.73</ele>
        <time>2022-11-12T13:49:44Z</time>
      </trkpt>
      <trkpt lat="46.83409" lon="4.72508">
        <ele>200.57</ele>
        <time>2022-11-12T13:49:49Z</time>
      </trkpt>
      <trkpt lat="46.83412" lon="4.72509">
        <ele>203.94</ele>
        <time>2022-11-12T13:49:53Z</time>
      </trkpt>
      <trkpt lat="46.83415" lon="4.72511">
        <ele>205.86</ele>
        <time>2022-11-12T13:49:56Z</time>
      </trkpt>
      <trkpt lat="46.8342" lon="4.72513">
        <ele>209.7</ele>
        <time>2022-11-12T13:50:01Z</time>
      </trkpt>
      <trkpt lat="46.83425" lon="4.72515">
        <ele>213.07</ele>
        <time>2022-11-12T13:50:07Z</time>
      </trkpt>
      <trkpt lat="46.8343" lon="4.72516">
        <ele>215.95</ele>
        <time>2022-11-12T13:50:12Z</time>
      </trkpt>
      <trkpt lat="46.83437" lon="4.7252">
        <ele>219.8</ele>
        <time>2022-11-12T13:50:21Z</time>
      </trkpt>
      <trkpt lat="46.83445" lon="4.72524">
        <ele>223.16</ele>
        <time>2022-11-12T13:50:30Z</time>
      </trkpt>
      <trkpt lat="46.83451" lon="4.72526">
        <ele>226.05</ele>
        <time>2022-11-12T13:50:42Z</time>
      </trkpt>
      <trkpt lat="46.83455" lon="4.72531">
        <ele>227.01</ele>
        <time>2022-11-12T13:50:49Z</time>
      </trkpt>
      <trkpt lat="46.83466" lon="4.72535">
        <ele>227.97</ele>
        <time>2022-11-12T13:51:03Z</time>
      </trkpt>
      <trkpt lat="46.83475" lon="4.72539">
        <ele>228.45</ele>
        <time>2022-11-12T13:51:15Z</time>
      </trkpt>
      <trkpt lat="46.83489" lon="4.72543">
        <ele>228.93</ele>
        <time>2022-11-12T13:51:31Z</time>
      </trkpt>
      <trkpt lat="46.83496" lon="4.72547">
        <ele>228.93</ele>
        <time>2022-11-12T13:51:45Z</time>
      </trkpt>
      <trkpt lat="46.83507" lon="4.72549">
        <ele>229.41</ele>
        <time>2022-11-12T13:51:58Z</time>
      </trkpt>
      <trkpt lat="46.83518" lon="4.72552">
        <ele>229.89</ele>
        <time>2022-11-12T13:52:13Z</time>
      </trkpt>
      <trkpt lat="46.83527" lon="4.72554">
        <ele>229.89</ele>
        <time>2022-11-12T13:52:26Z</time>
      </trkpt>
      <trkpt lat="46.83529" lon="4.72555">
        <ele>230.37</ele>
        <time>2022-11-12T13:52:42Z</time>
      </trkpt>
      <trkpt lat="46.83526" lon="4.72555">
        <ele>230.37</ele>
        <time>2022-11-12T13:52:57Z</time>
      </trkpt>
      <trkpt lat="46.83526" lon="4.72553">
        <ele>230.37</ele>
        <time>2022-11-12T13:53:14Z</time>
      </trkpt>
      <trkpt lat="46.83531" lon="4.72556">
        <ele>230.37</ele>
        <time>2022-11-12T13:53:31Z</time>
      </trkpt>
      <trkpt lat="46.83542" lon="4.72561">
        <ele>230.37</ele>
        <time>2022-11-12T13:53:44Z</time>
      </trkpt>
      <trkpt lat="46.83549" lon="4.72562">
        <ele>230.85</ele>
        <time>2022-11-12T13:53:56Z</time>
      </trkpt>
      <trkpt lat="46.8356" lon="4.72566">
        <ele>230.85</ele>
        <time>2022-11-12T13:54:09Z</time>
      </trkpt>
      <trkpt lat="46.83566" lon="4.72569">
        <ele>231.33</ele>
        <time>2022-11-12T13:54:24Z</time>
      </trkpt>
      <trkpt lat="46.83574" lon="4.72575">
        <ele>231.81</ele>
        <time>2022-11-12T13:54:38Z</time>
      </trkpt>
      <trkpt lat="46.83574" lon="4.72576">
        <ele>231.81</ele>
        <time>2022-11-12T13:54:51Z</time>
      </trkpt>
      <trkpt lat="46.83584" lon="4.72578">
        <ele>232.3</ele>
        <time>2022-11-12T13:55:04Z</time>
      </trkpt>
      <trkpt lat="46.83583" lon="4.7258">
        <ele>232.3</ele>
        <time>2022-11-12T13:55:14Z</time>
      </trkpt>
      <trkpt lat="46.83585" lon="4.72578">
        <ele>232.3</ele>
        <time>2022-11-12T13:55:34Z</time>
      </trkpt>
      <trkpt lat="46.83595" lon="4.72586">
        <ele>232.3</ele>
        <time>2022-11-12T13:55:49Z</time>
      </trkpt>
      <trkpt lat="46.83607" lon="4.72595">
        <ele>232.78</ele>
        <time>2022-11-12T13:56:03Z</time>
      </trkpt>
      <trkpt lat="46.8362" lon="4.72605">
        <ele>233.26</ele>
        <time>2022-11-12T13:56:18Z</time>
      </trkpt>
      <trkpt lat="46.83631" lon="4.72616">
        <ele>233.26</ele>
        <time>2022-11-12T13:56:32Z</time>
      </trkpt>
      <trkpt lat="46.83641" lon="4.72624">
        <ele>233.74</ele>
        <time>2022-11-12T13:56:44Z</time>
      </trkpt>
      <trkpt lat="46.83645" lon="4.72633">
        <ele>234.22</ele>
        <time>2022-11-12T13:56:58Z</time>
      </trkpt>
      <trkpt lat="46.83647" lon="4.7263">
        <ele>234.22</ele>
        <time>2022-11-12T13:57:11Z</time>
      </trkpt>
      <trkpt lat="46.8365" lon="4.7263">
        <ele>234.22</ele>
        <time>2022-11-12T13:57:14Z</time>
      </trkpt>
      <trkpt lat="46.83669" lon="4.72646">
        <ele>234.7</ele>
        <time>2022-11-12T13:57:35Z</time>
      </trkpt>
      <trkpt lat="46.83685" lon="4.7266">
        <ele>235.66</ele>
        <time>2022-11-12T13:57:52Z</time>
      </trkpt>
      <trkpt lat="46.83686" lon="4.72661">
        <ele>235.66</ele>
        <time>2022-11-12T13:57:53Z</time>
      </trkpt>
      <trkpt lat="46.83704" lon="4.72674">
        <ele>236.14</ele>
        <time>2022-11-12T13:58:11Z</time>
      </trkpt>
      <trkpt lat="46.83708" lon="4.72679">
        <ele>237.1</ele>
        <time>2022-11-12T13:58:16Z</time>
      </trkpt>
      <trkpt lat="46.83709" lon="4.72686">
        <ele>237.1</ele>
        <time>2022-11-12T13:58:21Z</time>
      </trkpt>
      <trkpt lat="46.83703" lon="4.72706">
        <ele>237.1</ele>
        <time>2022-11-12T13:58:36Z</time>
      </trkpt>
      <trkpt lat="46.83698" lon="4.72721">
        <ele>237.1</ele>
        <time>2022-11-12T13:58:49Z</time>
      </trkpt>
      <trkpt lat="46.83699" lon="4.72734">
        <ele>238.06</ele>
        <time>2022-11-12T13:59:01Z</time>
      </trkpt>
      <trkpt lat="46.83706" lon="4.72746">
        <ele>239.99</ele>
        <time>2022-11-12T13:59:17Z</time>
      </trkpt>
      <trkpt lat="46.83711" lon="4.7275">
        <ele>240.95</ele>
        <time>2022-11-12T13:59:25Z</time>
      </trkpt>
      <trkpt lat="46.83722" lon="4.72758">
        <ele>241.91</ele>
        <time>2022-11-12T13:59:41Z</time>
      </trkpt>
      <trkpt lat="46.83734" lon="4.72763">
        <ele>243.83</ele>
        <time>2022-11-12T13:59:56Z</time>
      </trkpt>
      <trkpt lat="46.83746" lon="4.72762">
        <ele>245.27</ele>
        <time>2022-11-12T14:00:11Z</time>
      </trkpt>
      <trkpt lat="46.83749" lon="4.72762">
        <ele>245.27</ele>
        <time>2022-11-12T14:00:14Z</time>
      </trkpt>
      <trkpt lat="46.83757" lon="4.72763">
        <ele>245.75</ele>
        <time>2022-11-12T14:00:31Z</time>
      </trkpt>
      <trkpt lat="46.83773" lon="4.72764">
        <ele>246.72</ele>
        <time>2022-11-12T14:00:49Z</time>
      </trkpt>
      <trkpt lat="46.83792" lon="4.72762">
        <ele>247.68</ele>
        <time>2022-11-12T14:01:12Z</time>
      </trkpt>
      <trkpt lat="46.83804" lon="4.72761">
        <ele>248.16</ele>
        <time>2022-11-12T14:01:26Z</time>
      </trkpt>
      <trkpt lat="46.83816" lon="4.72759">
        <ele>248.64</ele>
        <time>2022-11-12T14:01:46Z</time>
      </trkpt>
      <trkpt lat="46.8382" lon="4.72761">
        <ele>248.64</ele>
        <time>2022-11-12T14:01:59Z</time>
      </trkpt>
      <trkpt lat="46.8383" lon="4.72767">
        <ele>249.6</ele>
        <time>2022-11-12T14:02:16Z</time>
      </trkpt>
      <trkpt lat="46.83842" lon="4.72774">
        <ele>250.56</ele>
        <time>2022-11-12T14:02:34Z</time>
      </trkpt>
      <trkpt lat="46.83855" lon="4.72785">
        <ele>252</ele>
        <time>2022-11-12T14:02:54Z</time>
      </trkpt>
      <trkpt lat="46.83867" lon="4.72794">
        <ele>253.93</ele>
        <time>2022-11-12T14:03:12Z</time>
      </trkpt>
      <trkpt lat="46.83877" lon="4.72804">
        <ele>254.89</ele>
        <time>2022-11-12T14:03:28Z</time>
      </trkpt>
      <trkpt lat="46.83887" lon="4.72812">
        <ele>255.85</ele>
        <time>2022-11-12T14:03:43Z</time>
      </trkpt>
      <trkpt lat="46.83899" lon="4.72819">
        <ele>256.81</ele>
        <time>2022-11-12T14:04:01Z</time>
      </trkpt>
      <trkpt lat="46.83915" lon="4.72826">
        <ele>258.73</ele>
        <time>2022-11-12T14:04:22Z</time>
      </trkpt>
      <trkpt lat="46.83928" lon="4.72832">
        <ele>260.17</ele>
        <time>2022-11-12T14:04:41Z</time>
      </trkpt>
      <trkpt lat="46.83935" lon="4.72836">
        <ele>261.62</ele>
        <time>2022-11-12T14:04:53Z</time>
      </trkpt>
      <trkpt lat="46.83942" lon="4.72841">
        <ele>262.58</ele>
        <time>2022-11-12T14:05:04Z</time>
      </trkpt>
      <trkpt lat="46.83944" lon="4.72849">
        <ele>263.54</ele>
        <time>2022-11-12T14:05:16Z</time>
      </trkpt>
      <trkpt lat="46.83945" lon="4.72848">
        <ele>264.02</ele>
        <time>2022-11-12T14:05:37Z</time>
      </trkpt>
      <trkpt lat="46.83945" lon="4.72849">
        <ele>264.02</ele>
        <time>2022-11-12T14:06:02Z</time>
      </trkpt>
      <trkpt lat="46.8394" lon="4.72846">
        <ele>264.02</ele>
        <time>2022-11-12T14:06:26Z</time>
      </trkpt>
      <trkpt lat="46.83946" lon="4.72842">
        <ele>264.5</ele>
        <time>2022-11-12T14:06:37Z</time>
      </trkpt>
      <trkpt lat="46.83952" lon="4.72836">
        <ele>265.94</ele>
        <time>2022-11-12T14:06:50Z</time>
      </trkpt>
      <trkpt lat="46.83957" lon="4.72838">
        <ele>267.38</ele>
        <time>2022-11-12T14:07:00Z</time>
      </trkpt>
      <trkpt lat="46.83967" lon="4.72838">
        <ele>269.31</ele>
        <time>2022-11-12T14:07:14Z</time>
      </trkpt>
      <trkpt lat="46.83975" lon="4.72837">
        <ele>271.23</ele>
        <time>2022-11-12T14:07:27Z</time>
      </trkpt>
      <trkpt lat="46.8398" lon="4.72834">
        <ele>273.15</ele>
        <time>2022-11-12T14:07:41Z</time>
      </trkpt>
      <trkpt lat="46.83985" lon="4.72833">
        <ele>274.11</ele>
        <time>2022-11-12T14:07:54Z</time>
      </trkpt>
      <trkpt lat="46.83985" lon="4.72824">
        <ele>275.07</ele>
        <time>2022-11-12T14:08:12Z</time>
      </trkpt>
      <trkpt lat="46.8399" lon="4.72818">
        <ele>276.04</ele>
        <time>2022-11-12T14:08:28Z</time>
      </trkpt>
      <trkpt lat="46.83995" lon="4.72806">
        <ele>277</ele>
        <time>2022-11-12T14:08:42Z</time>
      </trkpt>
      <trkpt lat="46.83997" lon="4.72791">
        <ele>278.44</ele>
        <time>2022-11-12T14:08:59Z</time>
      </trkpt>
      <trkpt lat="46.84002" lon="4.72783">
        <ele>279.88</ele>
        <time>2022-11-12T14:09:13Z</time>
      </trkpt>
      <trkpt lat="46.84007" lon="4.72769">
        <ele>281.8</ele>
        <time>2022-11-12T14:09:31Z</time>
      </trkpt>
      <trkpt lat="46.84014" lon="4.72751">
        <ele>283.25</ele>
        <time>2022-11-12T14:09:48Z</time>
      </trkpt>
      <trkpt lat="46.84016" lon="4.72738">
        <ele>284.69</ele>
        <time>2022-11-12T14:10:02Z</time>
      </trkpt>
      <trkpt lat="46.84018" lon="4.7273">
        <ele>286.13</ele>
        <time>2022-11-12T14:10:17Z</time>
      </trkpt>
      <trkpt lat="46.84019" lon="4.72726">
        <ele>286.61</ele>
        <time>2022-11-12T14:10:32Z</time>
      </trkpt>
      <trkpt lat="46.8402" lon="4.72709">
        <ele>288.05</ele>
        <time>2022-11-12T14:10:47Z</time>
      </trkpt>
      <trkpt lat="46.84021" lon="4.72692">
        <ele>289.49</ele>
        <time>2022-11-12T14:11:04Z</time>
      </trkpt>
      <trkpt lat="46.84023" lon="4.72678">
        <ele>290.46</ele>
        <time>2022-11-12T14:11:18Z</time>
      </trkpt>
      <trkpt lat="46.84025" lon="4.72665">
        <ele>291.9</ele>
        <time>2022-11-12T14:11:35Z</time>
      </trkpt>
      <trkpt lat="46.84027" lon="4.72654">
        <ele>292.86</ele>
        <time>2022-11-12T14:11:51Z</time>
      </trkpt>
      <trkpt lat="46.84028" lon="4.72647">
        <ele>293.34</ele>
        <time>2022-11-12T14:12:05Z</time>
      </trkpt>
      <trkpt lat="46.84031" lon="4.72639">
        <ele>294.78</ele>
        <time>2022-11-12T14:12:19Z</time>
      </trkpt>
      <trkpt lat="46.84033" lon="4.7264">
        <ele>295.26</ele>
        <time>2022-11-12T14:12:34Z</time>
      </trkpt>
      <trkpt lat="46.84032" lon="4.72628">
        <ele>295.74</ele>
        <time>2022-11-12T14:12:47Z</time>
      </trkpt>
      <trkpt lat="46.84035" lon="4.72615">
        <ele>297.18</ele>
        <time>2022-11-12T14:13:03Z</time>
      </trkpt>
      <trkpt lat="46.84036" lon="4.726">
        <ele>298.63</ele>
        <time>2022-11-12T14:13:21Z</time>
      </trkpt>
      <trkpt lat="46.84039" lon="4.72585">
        <ele>300.07</ele>
        <time>2022-11-12T14:13:35Z</time>
      </trkpt>
      <trkpt lat="46.84042" lon="4.72576">
        <ele>300.55</ele>
        <time>2022-11-12T14:13:51Z</time>
      </trkpt>
      <trkpt lat="46.84044" lon="4.72563">
        <ele>301.99</ele>
        <time>2022-11-12T14:14:05Z</time>
      </trkpt>
      <trkpt lat="46.84044" lon="4.7255">
        <ele>303.43</ele>
        <time>2022-11-12T14:14:20Z</time>
      </trkpt>
      <trkpt lat="46.84047" lon="4.72534">
        <ele>303.91</ele>
        <time>2022-11-12T14:14:35Z</time>
      </trkpt>
      <trkpt lat="46.84048" lon="4.72517">
        <ele>304.39</ele>
        <time>2022-11-12T14:14:52Z</time>
      </trkpt>
      <trkpt lat="46.84045" lon="4.72524">
        <ele>304.88</ele>
        <time>2022-11-12T14:15:22Z</time>
      </trkpt>
      <trkpt lat="46.84051" lon="4.72506">
        <ele>304.88</ele>
        <time>2022-11-12T14:15:36Z</time>
      </trkpt>
      <trkpt lat="46.84051" lon="4.72502">
        <ele>304.88</ele>
        <time>2022-11-12T14:15:38Z</time>
      </trkpt>
      <trkpt lat="46.84052" lon="4.72479">
        <ele>305.84</ele>
        <time>2022-11-12T14:15:54Z</time>
      </trkpt>
      <trkpt lat="46.84052" lon="4.72465">
        <ele>305.84</ele>
        <time>2022-11-12T14:16:08Z</time>
      </trkpt>
      <trkpt lat="46.84054" lon="4.72462">
        <ele>306.32</ele>
        <time>2022-11-12T14:16:22Z</time>
      </trkpt>
      <trkpt lat="46.84054" lon="4.72464">
        <ele>306.32</ele>
        <time>2022-11-12T14:16:49Z</time>
      </trkpt>
      <trkpt lat="46.84054" lon="4.72464">
        <ele>306.32</ele>
        <time>2022-11-12T14:17:14Z</time>
      </trkpt>
      <trkpt lat="46.84055" lon="4.72466">
        <ele>306.32</ele>
        <time>2022-11-12T14:17:28Z</time>
      </trkpt>
      <trkpt lat="46.84055" lon="4.7246">
        <ele>306.8</ele>
        <time>2022-11-12T14:17:50Z</time>
      </trkpt>
      <trkpt lat="46.84052" lon="4.72463">
        <ele>306.8</ele>
        <time>2022-11-12T14:18:15Z</time>
      </trkpt>
      <trkpt lat="46.84053" lon="4.72463">
        <ele>306.8</ele>
        <time>2022-11-12T14:18:35Z</time>
      </trkpt>
      <trkpt lat="46.84051" lon="4.72462">
        <ele>306.8</ele>
        <time>2022-11-12T14:18:52Z</time>
      </trkpt>
      <trkpt lat="46.84052" lon="4.72463">
        <ele>306.8</ele>
        <time>2022-11-12T14:19:10Z</time>
      </trkpt>
      <trkpt lat="46.84052" lon="4.72462">
        <ele>306.8</ele>
        <time>2022-11-12T14:19:34Z</time>
      </trkpt>
      <trkpt lat="46.84052" lon="4.72462">
        <ele>306.8</ele>
        <time>2022-11-12T14:19:52Z</time>
      </trkpt>
      <trkpt lat="46.84052" lon="4.72464">
        <ele>305.36</ele>
        <time>2022-11-12T14:20:09Z</time>
      </trkpt>
      <trkpt lat="46.84053" lon="4.72464">
        <ele>306.8</ele>
        <time>2022-11-12T14:20:33Z</time>
      </trkpt>
      <trkpt lat="46.84059" lon="4.72463">
        <ele>307.76</ele>
        <time>2022-11-12T14:20:50Z</time>
      </trkpt>
      <trkpt lat="46.84062" lon="4.72463">
        <ele>308.24</ele>
        <time>2022-11-12T14:21:13Z</time>
      </trkpt>
      <trkpt lat="46.8407" lon="4.72451">
        <ele>309.2</ele>
        <time>2022-11-12T14:21:29Z</time>
      </trkpt>
      <trkpt lat="46.84082" lon="4.72455">
        <ele>310.64</ele>
        <time>2022-11-12T14:21:45Z</time>
      </trkpt>
      <trkpt lat="46.84095" lon="4.72452">
        <ele>312.57</ele>
        <time>2022-11-12T14:22:05Z</time>
      </trkpt>
      <trkpt lat="46.841" lon="4.72448">
        <ele>314.01</ele>
        <time>2022-11-12T14:22:21Z</time>
      </trkpt>
      <trkpt lat="46.84106" lon="4.72448">
        <ele>314.49</ele>
        <time>2022-11-12T14:22:36Z</time>
      </trkpt>
      <trkpt lat="46.84117" lon="4.72445">
        <ele>315.93</ele>
        <time>2022-11-12T14:22:51Z</time>
      </trkpt>
      <trkpt lat="46.84123" lon="4.72451">
        <ele>316.89</ele>
        <time>2022-11-12T14:23:04Z</time>
      </trkpt>
      <trkpt lat="46.84122" lon="4.72457">
        <ele>316.89</ele>
        <time>2022-11-12T14:23:17Z</time>
      </trkpt>
      <trkpt lat="46.8412" lon="4.72457">
        <ele>316.89</ele>
        <time>2022-11-12T14:23:46Z</time>
      </trkpt>
      <trkpt lat="46.84118" lon="4.72457">
        <ele>317.37</ele>
        <time>2022-11-12T14:24:10Z</time>
      </trkpt>
      <trkpt lat="46.84119" lon="4.72453">
        <ele>317.37</ele>
        <time>2022-11-12T14:24:40Z</time>
      </trkpt>
      <trkpt lat="46.8412" lon="4.72446">
        <ele>317.37</ele>
        <time>2022-11-12T14:24:55Z</time>
      </trkpt>
      <trkpt lat="46.84127" lon="4.72451">
        <ele>317.85</ele>
        <time>2022-11-12T14:25:09Z</time>
      </trkpt>
      <trkpt lat="46.84135" lon="4.72456">
        <ele>317.85</ele>
        <time>2022-11-12T14:25:22Z</time>
      </trkpt>
      <trkpt lat="46.8414" lon="4.72463">
        <ele>318.81</ele>
        <time>2022-11-12T14:25:39Z</time>
      </trkpt>
      <trkpt lat="46.8415" lon="4.72468">
        <ele>319.3</ele>
        <time>2022-11-12T14:25:53Z</time>
      </trkpt>
      <trkpt lat="46.84157" lon="4.72475">
        <ele>319.78</ele>
        <time>2022-11-12T14:26:07Z</time>
      </trkpt>
      <trkpt lat="46.84165" lon="4.72477">
        <ele>320.26</ele>
        <time>2022-11-12T14:26:19Z</time>
      </trkpt>
      <trkpt lat="46.84175" lon="4.72482">
        <ele>320.74</ele>
        <time>2022-11-12T14:26:33Z</time>
      </trkpt>
      <trkpt lat="46.84181" lon="4.72492">
        <ele>321.22</ele>
        <time>2022-11-12T14:26:48Z</time>
      </trkpt>
      <trkpt lat="46.84183" lon="4.72498">
        <ele>321.22</ele>
        <time>2022-11-12T14:27:02Z</time>
      </trkpt>
      <trkpt lat="46.84182" lon="4.72501">
        <ele>321.22</ele>
        <time>2022-11-12T14:27:24Z</time>
      </trkpt>
      <trkpt lat="46.84189" lon="4.72493">
        <ele>321.22</ele>
        <time>2022-11-12T14:27:42Z</time>
      </trkpt>
      <trkpt lat="46.84202" lon="4.72486">
        <ele>322.66</ele>
        <time>2022-11-12T14:27:57Z</time>
      </trkpt>
      <trkpt lat="46.84214" lon="4.72485">
        <ele>323.62</ele>
        <time>2022-11-12T14:28:11Z</time>
      </trkpt>
      <trkpt lat="46.84219" lon="4.72482">
        <ele>323.62</ele>
        <time>2022-11-12T14:28:23Z</time>
      </trkpt>
      <trkpt lat="46.84224" lon="4.72476">
        <ele>324.1</ele>
        <time>2022-11-12T14:28:40Z</time>
      </trkpt>
      <trkpt lat="46.84231" lon="4.72469">
        <ele>325.06</ele>
        <time>2022-11-12T14:28:57Z</time>
      </trkpt>
      <trkpt lat="46.84238" lon="4.72466">
        <ele>326.02</ele>
        <time>2022-11-12T14:29:11Z</time>
      </trkpt>
      <trkpt lat="46.84241" lon="4.72459">
        <ele>326.5</ele>
        <time>2022-11-12T14:29:30Z</time>
      </trkpt>
      <trkpt lat="46.84241" lon="4.72456">
        <ele>325.06</ele>
        <time>2022-11-12T14:29:34Z</time>
      </trkpt>
      <trkpt lat="46.84243" lon="4.72446">
        <ele>323.62</ele>
        <time>2022-11-12T14:29:51Z</time>
      </trkpt>
      <trkpt lat="46.84244" lon="4.72432">
        <ele>321.7</ele>
        <time>2022-11-12T14:30:05Z</time>
      </trkpt>
      <trkpt lat="46.84251" lon="4.72415">
        <ele>318.33</ele>
        <time>2022-11-12T14:30:21Z</time>
      </trkpt>
      <trkpt lat="46.84255" lon="4.72398">
        <ele>315.93</ele>
        <time>2022-11-12T14:30:38Z</time>
      </trkpt>
      <trkpt lat="46.84256" lon="4.72381">
        <ele>313.05</ele>
        <time>2022-11-12T14:30:55Z</time>
      </trkpt>
      <trkpt lat="46.84255" lon="4.72376">
        <ele>312.09</ele>
        <time>2022-11-12T14:31:08Z</time>
      </trkpt>
      <trkpt lat="46.84256" lon="4.72372">
        <ele>312.09</ele>
        <time>2022-11-12T14:31:27Z</time>
      </trkpt>
      <trkpt lat="46.84262" lon="4.72367">
        <ele>312.09</ele>
        <time>2022-11-12T14:31:41Z</time>
      </trkpt>
      <trkpt lat="46.84261" lon="4.72365">
        <ele>311.6</ele>
        <time>2022-11-12T14:32:02Z</time>
      </trkpt>
      <trkpt lat="46.84257" lon="4.72362">
        <ele>311.12</ele>
        <time>2022-11-12T14:32:19Z</time>
      </trkpt>
      <trkpt lat="46.84255" lon="4.72365">
        <ele>310.16</ele>
        <time>2022-11-12T14:32:29Z</time>
      </trkpt>
      <trkpt lat="46.84252" lon="4.72354">
        <ele>308.24</ele>
        <time>2022-11-12T14:32:44Z</time>
      </trkpt>
      <trkpt lat="46.8425" lon="4.72351">
        <ele>307.76</ele>
        <time>2022-11-12T14:32:48Z</time>
      </trkpt>
      <trkpt lat="46.84241" lon="4.72335">
        <ele>304.39</ele>
        <time>2022-11-12T14:33:06Z</time>
      </trkpt>
      <trkpt lat="46.84231" lon="4.72323">
        <ele>302.47</ele>
        <time>2022-11-12T14:33:21Z</time>
      </trkpt>
      <trkpt lat="46.84229" lon="4.72321">
        <ele>301.51</ele>
        <time>2022-11-12T14:33:24Z</time>
      </trkpt>
      <trkpt lat="46.84214" lon="4.72312">
        <ele>298.63</ele>
        <time>2022-11-12T14:33:43Z</time>
      </trkpt>
      <trkpt lat="46.84202" lon="4.72305">
        <ele>296.7</ele>
        <time>2022-11-12T14:33:59Z</time>
      </trkpt>
      <trkpt lat="46.84191" lon="4.72298">
        <ele>293.82</ele>
        <time>2022-11-12T14:34:13Z</time>
      </trkpt>
      <trkpt lat="46.84175" lon="4.72289">
        <ele>290.46</ele>
        <time>2022-11-12T14:34:31Z</time>
      </trkpt>
      <trkpt lat="46.84155" lon="4.72279">
        <ele>287.09</ele>
        <time>2022-11-12T14:34:51Z</time>
      </trkpt>
      <trkpt lat="46.84147" lon="4.72274">
        <ele>285.65</ele>
        <time>2022-11-12T14:35:00Z</time>
      </trkpt>
      <trkpt lat="46.84141" lon="4.72272">
        <ele>285.17</ele>
        <time>2022-11-12T14:35:05Z</time>
      </trkpt>
      <trkpt lat="46.84127" lon="4.72261">
        <ele>282.77</ele>
        <time>2022-11-12T14:35:24Z</time>
      </trkpt>
      <trkpt lat="46.84126" lon="4.7226">
        <ele>282.28</ele>
        <time>2022-11-12T14:35:30Z</time>
      </trkpt>
      <trkpt lat="46.84118" lon="4.72258">
        <ele>281.32</ele>
        <time>2022-11-12T14:35:38Z</time>
      </trkpt>
      <trkpt lat="46.841" lon="4.72247">
        <ele>278.44</ele>
        <time>2022-11-12T14:35:57Z</time>
      </trkpt>
      <trkpt lat="46.84083" lon="4.72237">
        <ele>275.07</ele>
        <time>2022-11-12T14:36:14Z</time>
      </trkpt>
      <trkpt lat="46.84068" lon="4.7223">
        <ele>272.19</ele>
        <time>2022-11-12T14:36:28Z</time>
      </trkpt>
      <trkpt lat="46.84063" lon="4.72225">
        <ele>270.75</ele>
        <time>2022-11-12T14:36:34Z</time>
      </trkpt>
      <trkpt lat="46.84048" lon="4.72216">
        <ele>267.38</ele>
        <time>2022-11-12T14:36:49Z</time>
      </trkpt>
      <trkpt lat="46.84028" lon="4.72207">
        <ele>264.5</ele>
        <time>2022-11-12T14:37:09Z</time>
      </trkpt>
      <trkpt lat="46.8401" lon="4.72198">
        <ele>261.14</ele>
        <time>2022-11-12T14:37:27Z</time>
      </trkpt>
      <trkpt lat="46.83994" lon="4.72189">
        <ele>260.17</ele>
        <time>2022-11-12T14:37:43Z</time>
      </trkpt>
      <trkpt lat="46.83985" lon="4.72178">
        <ele>258.25</ele>
        <time>2022-11-12T14:37:56Z</time>
      </trkpt>
      <trkpt lat="46.83974" lon="4.72158">
        <ele>256.81</ele>
        <time>2022-11-12T14:38:13Z</time>
      </trkpt>
      <trkpt lat="46.83966" lon="4.7214">
        <ele>256.33</ele>
        <time>2022-11-12T14:38:28Z</time>
      </trkpt>
      <trkpt lat="46.83965" lon="4.72139">
        <ele>255.85</ele>
        <time>2022-11-12T14:38:29Z</time>
      </trkpt>
      <trkpt lat="46.83959" lon="4.72137">
        <ele>254.89</ele>
        <time>2022-11-12T14:38:44Z</time>
      </trkpt>
      <trkpt lat="46.83948" lon="4.72128">
        <ele>254.41</ele>
        <time>2022-11-12T14:39:01Z</time>
      </trkpt>
      <trkpt lat="46.83944" lon="4.72106">
        <ele>253.93</ele>
        <time>2022-11-12T14:39:16Z</time>
      </trkpt>
      <trkpt lat="46.83948" lon="4.72091">
        <ele>253.93</ele>
        <time>2022-11-12T14:39:33Z</time>
      </trkpt>
      <trkpt lat="46.83949" lon="4.72057">
        <ele>253.44</ele>
        <time>2022-11-12T14:39:54Z</time>
      </trkpt>
      <trkpt lat="46.83952" lon="4.72027">
        <ele>254.89</ele>
        <time>2022-11-12T14:40:14Z</time>
      </trkpt>
      <trkpt lat="46.83954" lon="4.71995">
        <ele>254.89</ele>
        <time>2022-11-12T14:40:33Z</time>
      </trkpt>
      <trkpt lat="46.83952" lon="4.7197">
        <ele>253.93</ele>
        <time>2022-11-12T14:40:52Z</time>
      </trkpt>
      <trkpt lat="46.83944" lon="4.71945">
        <ele>253.44</ele>
        <time>2022-11-12T14:41:12Z</time>
      </trkpt>
      <trkpt lat="46.83943" lon="4.71915">
        <ele>252.48</ele>
        <time>2022-11-12T14:41:34Z</time>
      </trkpt>
      <trkpt lat="46.83948" lon="4.71891">
        <ele>252</ele>
        <time>2022-11-12T14:41:51Z</time>
      </trkpt>
      <trkpt lat="46.83953" lon="4.71875">
        <ele>252</ele>
        <time>2022-11-12T14:42:02Z</time>
      </trkpt>
      <trkpt lat="46.83956" lon="4.7185">
        <ele>251.04</ele>
        <time>2022-11-12T14:42:21Z</time>
      </trkpt>
      <trkpt lat="46.8396" lon="4.71819">
        <ele>250.56</ele>
        <time>2022-11-12T14:42:46Z</time>
      </trkpt>
      <trkpt lat="46.83965" lon="4.71791">
        <ele>250.56</ele>
        <time>2022-11-12T14:43:08Z</time>
      </trkpt>
      <trkpt lat="46.83969" lon="4.71789">
        <ele>250.08</ele>
        <time>2022-11-12T14:43:35Z</time>
      </trkpt>
      <trkpt lat="46.83967" lon="4.71765">
        <ele>250.08</ele>
        <time>2022-11-12T14:43:50Z</time>
      </trkpt>
      <trkpt lat="46.83969" lon="4.71742">
        <ele>250.08</ele>
        <time>2022-11-12T14:44:10Z</time>
      </trkpt>
      <trkpt lat="46.83974" lon="4.71723">
        <ele>251.52</ele>
        <time>2022-11-12T14:44:26Z</time>
      </trkpt>
      <trkpt lat="46.83978" lon="4.71701">
        <ele>252</ele>
        <time>2022-11-12T14:44:44Z</time>
      </trkpt>
      <trkpt lat="46.83981" lon="4.71683">
        <ele>252.48</ele>
        <time>2022-11-12T14:45:00Z</time>
      </trkpt>
      <trkpt lat="46.83983" lon="4.71657">
        <ele>252.96</ele>
        <time>2022-11-12T14:45:21Z</time>
      </trkpt>
      <trkpt lat="46.83984" lon="4.71628">
        <ele>252.96</ele>
        <time>2022-11-12T14:45:41Z</time>
      </trkpt>
      <trkpt lat="46.83988" lon="4.71604">
        <ele>252.96</ele>
        <time>2022-11-12T14:45:59Z</time>
      </trkpt>
      <trkpt lat="46.83995" lon="4.71572">
        <ele>251.52</ele>
        <time>2022-11-12T14:46:21Z</time>
      </trkpt>
      <trkpt lat="46.83999" lon="4.7155">
        <ele>250.56</ele>
        <time>2022-11-12T14:46:38Z</time>
      </trkpt>
      <trkpt lat="46.84002" lon="4.71526">
        <ele>249.12</ele>
        <time>2022-11-12T14:46:59Z</time>
      </trkpt>
      <trkpt lat="46.84004" lon="4.71492">
        <ele>247.2</ele>
        <time>2022-11-12T14:47:22Z</time>
      </trkpt>
      <trkpt lat="46.84001" lon="4.71461">
        <ele>245.75</ele>
        <time>2022-11-12T14:47:44Z</time>
      </trkpt>
      <trkpt lat="46.83998" lon="4.71434">
        <ele>243.83</ele>
        <time>2022-11-12T14:48:04Z</time>
      </trkpt>
      <trkpt lat="46.8399" lon="4.71403">
        <ele>242.39</ele>
        <time>2022-11-12T14:48:25Z</time>
      </trkpt>
      <trkpt lat="46.83985" lon="4.71376">
        <ele>241.43</ele>
        <time>2022-11-12T14:48:46Z</time>
      </trkpt>
      <trkpt lat="46.83984" lon="4.71349">
        <ele>240.47</ele>
        <time>2022-11-12T14:49:05Z</time>
      </trkpt>
      <trkpt lat="46.83983" lon="4.71323">
        <ele>240.47</ele>
        <time>2022-11-12T14:49:23Z</time>
      </trkpt>
      <trkpt lat="46.83982" lon="4.71288">
        <ele>239.99</ele>
        <time>2022-11-12T14:49:46Z</time>
      </trkpt>
      <trkpt lat="46.83982" lon="4.71259">
        <ele>239.99</ele>
        <time>2022-11-12T14:50:06Z</time>
      </trkpt>
      <trkpt lat="46.83984" lon="4.71226">
        <ele>239.99</ele>
        <time>2022-11-12T14:50:27Z</time>
      </trkpt>
      <trkpt lat="46.83985" lon="4.71199">
        <ele>239.99</ele>
        <time>2022-11-12T14:50:47Z</time>
      </trkpt>
      <trkpt lat="46.83986" lon="4.71174">
        <ele>239.99</ele>
        <time>2022-11-12T14:51:07Z</time>
      </trkpt>
      <trkpt lat="46.83986" lon="4.71153">
        <ele>239.99</ele>
        <time>2022-11-12T14:51:27Z</time>
      </trkpt>
      <trkpt lat="46.83989" lon="4.71126">
        <ele>239.99</ele>
        <time>2022-11-12T14:51:48Z</time>
      </trkpt>
      <trkpt lat="46.83988" lon="4.71096">
        <ele>241.43</ele>
        <time>2022-11-12T14:52:10Z</time>
      </trkpt>
      <trkpt lat="46.83976" lon="4.71083">
        <ele>241.43</ele>
        <time>2022-11-12T14:52:22Z</time>
      </trkpt>
      <trkpt lat="46.83956" lon="4.7108">
        <ele>241.91</ele>
        <time>2022-11-12T14:52:43Z</time>
      </trkpt>
      <trkpt lat="46.8394" lon="4.71086">
        <ele>241.91</ele>
        <time>2022-11-12T14:53:02Z</time>
      </trkpt>
      <trkpt lat="46.83924" lon="4.71088">
        <ele>240.95</ele>
        <time>2022-11-12T14:53:21Z</time>
      </trkpt>
      <trkpt lat="46.83899" lon="4.71093">
        <ele>240.47</ele>
        <time>2022-11-12T14:53:44Z</time>
      </trkpt>
      <trkpt lat="46.83881" lon="4.71107">
        <ele>239.99</ele>
        <time>2022-11-12T14:54:04Z</time>
      </trkpt>
      <trkpt lat="46.83872" lon="4.71127">
        <ele>239.99</ele>
        <time>2022-11-12T14:54:22Z</time>
      </trkpt>
      <trkpt lat="46.83869" lon="4.71135">
        <ele>239.51</ele>
        <time>2022-11-12T14:54:28Z</time>
      </trkpt>
      <trkpt lat="46.83859" lon="4.71161">
        <ele>239.51</ele>
        <time>2022-11-12T14:54:50Z</time>
      </trkpt>
      <trkpt lat="46.83847" lon="4.71192">
        <ele>238.54</ele>
        <time>2022-11-12T14:55:17Z</time>
      </trkpt>
      <trkpt lat="46.83833" lon="4.71221">
        <ele>238.54</ele>
        <time>2022-11-12T14:55:40Z</time>
      </trkpt>
      <trkpt lat="46.83824" lon="4.71248">
        <ele>238.54</ele>
        <time>2022-11-12T14:56:02Z</time>
      </trkpt>
      <trkpt lat="46.83815" lon="4.71273">
        <ele>238.54</ele>
        <time>2022-11-12T14:56:21Z</time>
      </trkpt>
      <trkpt lat="46.83805" lon="4.71298">
        <ele>238.54</ele>
        <time>2022-11-12T14:56:42Z</time>
      </trkpt>
      <trkpt lat="46.83791" lon="4.7132">
        <ele>238.54</ele>
        <time>2022-11-12T14:57:03Z</time>
      </trkpt>
      <trkpt lat="46.8378" lon="4.71341">
        <ele>238.54</ele>
        <time>2022-11-12T14:57:23Z</time>
      </trkpt>
      <trkpt lat="46.8377" lon="4.71362">
        <ele>238.54</ele>
        <time>2022-11-12T14:57:41Z</time>
      </trkpt>
      <trkpt lat="46.83757" lon="4.71386">
        <ele>238.54</ele>
        <time>2022-11-12T14:58:01Z</time>
      </trkpt>
      <trkpt lat="46.83747" lon="4.71406">
        <ele>238.54</ele>
        <time>2022-11-12T14:58:18Z</time>
      </trkpt>
      <trkpt lat="46.8374" lon="4.71419">
        <ele>239.51</ele>
        <time>2022-11-12T14:58:36Z</time>
      </trkpt>
      <trkpt lat="46.83747" lon="4.71424">
        <ele>239.51</ele>
        <time>2022-11-12T14:59:08Z</time>
      </trkpt>
      <trkpt lat="46.83739" lon="4.71421">
        <ele>239.51</ele>
        <time>2022-11-12T14:59:40Z</time>
      </trkpt>
      <trkpt lat="46.83738" lon="4.7143">
        <ele>239.99</ele>
        <time>2022-11-12T15:00:06Z</time>
      </trkpt>
      <trkpt lat="46.83734" lon="4.71433">
        <ele>240.47</ele>
        <time>2022-11-12T15:00:21Z</time>
      </trkpt>
      <trkpt lat="46.83719" lon="4.71429">
        <ele>243.83</ele>
        <time>2022-11-12T15:00:40Z</time>
      </trkpt>
      <trkpt lat="46.83714" lon="4.71426">
        <ele>246.23</ele>
        <time>2022-11-12T15:00:55Z</time>
      </trkpt>
      <trkpt lat="46.83708" lon="4.71426">
        <ele>248.16</ele>
        <time>2022-11-12T15:01:10Z</time>
      </trkpt>
      <trkpt lat="46.83701" lon="4.71443">
        <ele>249.6</ele>
        <time>2022-11-12T15:01:27Z</time>
      </trkpt>
      <trkpt lat="46.83686" lon="4.7145">
        <ele>249.6</ele>
        <time>2022-11-12T15:01:46Z</time>
      </trkpt>
      <trkpt lat="46.83673" lon="4.71449">
        <ele>249.6</ele>
        <time>2022-11-12T15:02:01Z</time>
      </trkpt>
      <trkpt lat="46.83663" lon="4.71442">
        <ele>250.08</ele>
        <time>2022-11-12T15:02:17Z</time>
      </trkpt>
      <trkpt lat="46.83662" lon="4.71426">
        <ele>251.52</ele>
        <time>2022-11-12T15:02:34Z</time>
      </trkpt>
      <trkpt lat="46.83659" lon="4.71404">
        <ele>253.44</ele>
        <time>2022-11-12T15:02:54Z</time>
      </trkpt>
      <trkpt lat="46.83648" lon="4.71398">
        <ele>255.37</ele>
        <time>2022-11-12T15:03:10Z</time>
      </trkpt>
      <trkpt lat="46.83636" lon="4.71394">
        <ele>256.81</ele>
        <time>2022-11-12T15:03:24Z</time>
      </trkpt>
      <trkpt lat="46.83624" lon="4.71387">
        <ele>257.77</ele>
        <time>2022-11-12T15:03:42Z</time>
      </trkpt>
      <trkpt lat="46.83614" lon="4.71371">
        <ele>258.73</ele>
        <time>2022-11-12T15:04:00Z</time>
      </trkpt>
      <trkpt lat="46.83613" lon="4.71354">
        <ele>260.17</ele>
        <time>2022-11-12T15:04:16Z</time>
      </trkpt>
      <trkpt lat="46.83613" lon="4.71339">
        <ele>261.62</ele>
        <time>2022-11-12T15:04:34Z</time>
      </trkpt>
      <trkpt lat="46.83606" lon="4.71326">
        <ele>262.58</ele>
        <time>2022-11-12T15:04:52Z</time>
      </trkpt>
      <trkpt lat="46.83601" lon="4.71319">
        <ele>266.42</ele>
        <time>2022-11-12T15:05:04Z</time>
      </trkpt>
      <trkpt lat="46.83601" lon="4.71318">
        <ele>255.37</ele>
        <time>2022-11-12T15:05:05Z</time>
      </trkpt>
      <trkpt lat="46.83601" lon="4.71317">
        <ele>262.58</ele>
        <time>2022-11-12T15:05:06Z</time>
      </trkpt>
      <trkpt lat="46.83599" lon="4.71316">
        <ele>265.46</ele>
        <time>2022-11-12T15:05:08Z</time>
      </trkpt>
      <trkpt lat="46.83594" lon="4.71307">
        <ele>264.5</ele>
        <time>2022-11-12T15:05:22Z</time>
      </trkpt>
      <trkpt lat="46.83593" lon="4.71305">
        <ele>265.94</ele>
        <time>2022-11-12T15:05:25Z</time>
      </trkpt>
      <trkpt lat="46.83589" lon="4.71299">
        <ele>266.9</ele>
        <time>2022-11-12T15:05:38Z</time>
      </trkpt>
      <trkpt lat="46.83581" lon="4.71286">
        <ele>268.35</ele>
        <time>2022-11-12T15:05:53Z</time>
      </trkpt>
      <trkpt lat="46.83573" lon="4.71277">
        <ele>269.31</ele>
        <time>2022-11-12T15:06:07Z</time>
      </trkpt>
      <trkpt lat="46.83566" lon="4.71269">
        <ele>271.23</ele>
        <time>2022-11-12T15:06:21Z</time>
      </trkpt>
      <trkpt lat="46.83558" lon="4.7126">
        <ele>272.19</ele>
        <time>2022-11-12T15:06:37Z</time>
      </trkpt>
      <trkpt lat="46.83551" lon="4.71248">
        <ele>274.11</ele>
        <time>2022-11-12T15:06:53Z</time>
      </trkpt>
      <trkpt lat="46.83547" lon="4.71236">
        <ele>275.56</ele>
        <time>2022-11-12T15:07:08Z</time>
      </trkpt>
      <trkpt lat="46.83548" lon="4.71237">
        <ele>277</ele>
        <time>2022-11-12T15:07:25Z</time>
      </trkpt>
      <trkpt lat="46.83546" lon="4.71241">
        <ele>277</ele>
        <time>2022-11-12T15:07:46Z</time>
      </trkpt>
      <trkpt lat="46.83548" lon="4.71239">
        <ele>277</ele>
        <time>2022-11-12T15:08:20Z</time>
      </trkpt>
      <trkpt lat="46.83542" lon="4.71227">
        <ele>278.44</ele>
        <time>2022-11-12T15:08:40Z</time>
      </trkpt>
      <trkpt lat="46.83535" lon="4.71211">
        <ele>280.36</ele>
        <time>2022-11-12T15:08:56Z</time>
      </trkpt>
      <trkpt lat="46.8353" lon="4.71201">
        <ele>281.8</ele>
        <time>2022-11-12T15:09:08Z</time>
      </trkpt>
      <trkpt lat="46.83527" lon="4.7119">
        <ele>282.77</ele>
        <time>2022-11-12T15:09:21Z</time>
      </trkpt>
      <trkpt lat="46.83522" lon="4.71178">
        <ele>284.21</ele>
        <time>2022-11-12T15:09:34Z</time>
      </trkpt>
      <trkpt lat="46.8352" lon="4.71166">
        <ele>285.17</ele>
        <time>2022-11-12T15:09:49Z</time>
      </trkpt>
      <trkpt lat="46.83516" lon="4.71156">
        <ele>286.61</ele>
        <time>2022-11-12T15:10:03Z</time>
      </trkpt>
      <trkpt lat="46.83511" lon="4.71144">
        <ele>287.57</ele>
        <time>2022-11-12T15:10:17Z</time>
      </trkpt>
      <trkpt lat="46.83505" lon="4.71135">
        <ele>289.01</ele>
        <time>2022-11-12T15:10:31Z</time>
      </trkpt>
      <trkpt lat="46.83496" lon="4.71125">
        <ele>290.94</ele>
        <time>2022-11-12T15:10:46Z</time>
      </trkpt>
      <trkpt lat="46.83486" lon="4.71117">
        <ele>291.9</ele>
        <time>2022-11-12T15:11:02Z</time>
      </trkpt>
      <trkpt lat="46.83477" lon="4.7111">
        <ele>292.86</ele>
        <time>2022-11-12T15:11:15Z</time>
      </trkpt>
      <trkpt lat="46.83466" lon="4.71106">
        <ele>293.82</ele>
        <time>2022-11-12T15:11:31Z</time>
      </trkpt>
      <trkpt lat="46.83454" lon="4.71105">
        <ele>295.26</ele>
        <time>2022-11-12T15:11:47Z</time>
      </trkpt>
      <trkpt lat="46.83446" lon="4.71102">
        <ele>296.22</ele>
        <time>2022-11-12T15:12:02Z</time>
      </trkpt>
      <trkpt lat="46.83437" lon="4.71097">
        <ele>296.22</ele>
        <time>2022-11-12T15:12:20Z</time>
      </trkpt>
      <trkpt lat="46.83427" lon="4.71091">
        <ele>296.22</ele>
        <time>2022-11-12T15:12:34Z</time>
      </trkpt>
      <trkpt lat="46.83415" lon="4.7108">
        <ele>296.7</ele>
        <time>2022-11-12T15:12:48Z</time>
      </trkpt>
      <trkpt lat="46.83404" lon="4.71073">
        <ele>297.18</ele>
        <time>2022-11-12T15:13:03Z</time>
      </trkpt>
      <trkpt lat="46.83394" lon="4.7107">
        <ele>297.18</ele>
        <time>2022-11-12T15:13:17Z</time>
      </trkpt>
      <trkpt lat="46.83385" lon="4.71066">
        <ele>298.15</ele>
        <time>2022-11-12T15:13:31Z</time>
      </trkpt>
      <trkpt lat="46.83374" lon="4.71059">
        <ele>299.11</ele>
        <time>2022-11-12T15:13:47Z</time>
      </trkpt>
      <trkpt lat="46.83362" lon="4.71052">
        <ele>300.07</ele>
        <time>2022-11-12T15:14:02Z</time>
      </trkpt>
      <trkpt lat="46.83353" lon="4.71054">
        <ele>300.07</ele>
        <time>2022-11-12T15:14:17Z</time>
      </trkpt>
      <trkpt lat="46.83343" lon="4.71057">
        <ele>300.55</ele>
        <time>2022-11-12T15:14:31Z</time>
      </trkpt>
      <trkpt lat="46.83341" lon="4.71057">
        <ele>300.55</ele>
        <time>2022-11-12T15:14:33Z</time>
      </trkpt>
      <trkpt lat="46.83328" lon="4.71053">
        <ele>301.03</ele>
        <time>2022-11-12T15:14:48Z</time>
      </trkpt>
      <trkpt lat="46.83317" lon="4.71048">
        <ele>301.99</ele>
        <time>2022-11-12T15:15:03Z</time>
      </trkpt>
      <trkpt lat="46.83307" lon="4.71043">
        <ele>302.95</ele>
        <time>2022-11-12T15:15:16Z</time>
      </trkpt>
      <trkpt lat="46.83301" lon="4.71032">
        <ele>303.43</ele>
        <time>2022-11-12T15:15:30Z</time>
      </trkpt>
      <trkpt lat="46.833" lon="4.71017">
        <ele>304.88</ele>
        <time>2022-11-12T15:15:45Z</time>
      </trkpt>
      <trkpt lat="46.83307" lon="4.71003">
        <ele>306.32</ele>
        <time>2022-11-12T15:16:03Z</time>
      </trkpt>
      <trkpt lat="46.833" lon="4.70982">
        <ele>307.76</ele>
        <time>2022-11-12T15:16:20Z</time>
      </trkpt>
      <trkpt lat="46.8329" lon="4.7097">
        <ele>309.2</ele>
        <time>2022-11-12T15:16:37Z</time>
      </trkpt>
      <trkpt lat="46.83285" lon="4.70958">
        <ele>311.12</ele>
        <time>2022-11-12T15:16:50Z</time>
      </trkpt>
      <trkpt lat="46.83276" lon="4.70948">
        <ele>312.09</ele>
        <time>2022-11-12T15:17:03Z</time>
      </trkpt>
      <trkpt lat="46.83265" lon="4.70937">
        <ele>313.05</ele>
        <time>2022-11-12T15:17:18Z</time>
      </trkpt>
      <trkpt lat="46.83254" lon="4.70929">
        <ele>314.01</ele>
        <time>2022-11-12T15:17:32Z</time>
      </trkpt>
      <trkpt lat="46.83252" lon="4.7093">
        <ele>314.01</ele>
        <time>2022-11-12T15:17:45Z</time>
      </trkpt>
      <trkpt lat="46.8325" lon="4.70929">
        <ele>314.01</ele>
        <time>2022-11-12T15:17:57Z</time>
      </trkpt>
      <trkpt lat="46.83236" lon="4.70926">
        <ele>314.01</ele>
        <time>2022-11-12T15:18:10Z</time>
      </trkpt>
      <trkpt lat="46.83234" lon="4.70926">
        <ele>314.01</ele>
        <time>2022-11-12T15:18:12Z</time>
      </trkpt>
      <trkpt lat="46.83218" lon="4.70929">
        <ele>314.01</ele>
        <time>2022-11-12T15:18:29Z</time>
      </trkpt>
      <trkpt lat="46.83207" lon="4.70931">
        <ele>314.01</ele>
        <time>2022-11-12T15:18:42Z</time>
      </trkpt>
      <trkpt lat="46.83195" lon="4.70931">
        <ele>314.01</ele>
        <time>2022-11-12T15:18:55Z</time>
      </trkpt>
      <trkpt lat="46.83182" lon="4.70929">
        <ele>314.49</ele>
        <time>2022-11-12T15:19:09Z</time>
      </trkpt>
      <trkpt lat="46.8317" lon="4.70929">
        <ele>314.49</ele>
        <time>2022-11-12T15:19:22Z</time>
      </trkpt>
      <trkpt lat="46.83158" lon="4.70927">
        <ele>314.49</ele>
        <time>2022-11-12T15:19:35Z</time>
      </trkpt>
      <trkpt lat="46.8315" lon="4.70926">
        <ele>314.49</ele>
        <time>2022-11-12T15:19:46Z</time>
      </trkpt>
      <trkpt lat="46.83147" lon="4.70927">
        <ele>314.49</ele>
        <time>2022-11-12T15:19:50Z</time>
      </trkpt>
      <trkpt lat="46.8313" lon="4.7092">
        <ele>314.49</ele>
        <time>2022-11-12T15:20:06Z</time>
      </trkpt>
      <trkpt lat="46.83128" lon="4.70919">
        <ele>314.49</ele>
        <time>2022-11-12T15:20:08Z</time>
      </trkpt>
      <trkpt lat="46.83123" lon="4.70916">
        <ele>314.49</ele>
        <time>2022-11-12T15:20:13Z</time>
      </trkpt>
      <trkpt lat="46.83116" lon="4.70911">
        <ele>314.49</ele>
        <time>2022-11-12T15:20:21Z</time>
      </trkpt>
      <trkpt lat="46.83109" lon="4.70912">
        <ele>313.05</ele>
        <time>2022-11-12T15:20:33Z</time>
      </trkpt>
      <trkpt lat="46.831" lon="4.70909">
        <ele>313.05</ele>
        <time>2022-11-12T15:20:46Z</time>
      </trkpt>
      <trkpt lat="46.83092" lon="4.7091">
        <ele>313.05</ele>
        <time>2022-11-12T15:20:54Z</time>
      </trkpt>
      <trkpt lat="46.83081" lon="4.70908">
        <ele>313.05</ele>
        <time>2022-11-12T15:21:06Z</time>
      </trkpt>
      <trkpt lat="46.83068" lon="4.70899">
        <ele>313.05</ele>
        <time>2022-11-12T15:21:21Z</time>
      </trkpt>
      <trkpt lat="46.83057" lon="4.70886">
        <ele>313.05</ele>
        <time>2022-11-12T15:21:37Z</time>
      </trkpt>
      <trkpt lat="46.83054" lon="4.70885">
        <ele>313.05</ele>
        <time>2022-11-12T15:21:40Z</time>
      </trkpt>
      <trkpt lat="46.83037" lon="4.70888">
        <ele>312.57</ele>
        <time>2022-11-12T15:21:57Z</time>
      </trkpt>
      <trkpt lat="46.83019" lon="4.70895">
        <ele>312.09</ele>
        <time>2022-11-12T15:22:16Z</time>
      </trkpt>
      <trkpt lat="46.83003" lon="4.70909">
        <ele>311.6</ele>
        <time>2022-11-12T15:22:34Z</time>
      </trkpt>
      <trkpt lat="46.82987" lon="4.70917">
        <ele>311.6</ele>
        <time>2022-11-12T15:22:50Z</time>
      </trkpt>
      <trkpt lat="46.82984" lon="4.70917">
        <ele>313.05</ele>
        <time>2022-11-12T15:22:53Z</time>
      </trkpt>
      <trkpt lat="46.82969" lon="4.70913">
        <ele>313.05</ele>
        <time>2022-11-12T15:23:10Z</time>
      </trkpt>
      <trkpt lat="46.82953" lon="4.70909">
        <ele>313.53</ele>
        <time>2022-11-12T15:23:26Z</time>
      </trkpt>
      <trkpt lat="46.82937" lon="4.70908">
        <ele>314.49</ele>
        <time>2022-11-12T15:23:43Z</time>
      </trkpt>
      <trkpt lat="46.82921" lon="4.70904">
        <ele>314.49</ele>
        <time>2022-11-12T15:24:01Z</time>
      </trkpt>
      <trkpt lat="46.82908" lon="4.70911">
        <ele>314.49</ele>
        <time>2022-11-12T15:24:17Z</time>
      </trkpt>
      <trkpt lat="46.82902" lon="4.70933">
        <ele>312.57</ele>
        <time>2022-11-12T15:24:34Z</time>
      </trkpt>
      <trkpt lat="46.82901" lon="4.70963">
        <ele>310.64</ele>
        <time>2022-11-12T15:24:55Z</time>
      </trkpt>
      <trkpt lat="46.82906" lon="4.70996">
        <ele>308.72</ele>
        <time>2022-11-12T15:25:18Z</time>
      </trkpt>
      <trkpt lat="46.82907" lon="4.71025">
        <ele>306.32</ele>
        <time>2022-11-12T15:25:40Z</time>
      </trkpt>
      <trkpt lat="46.82908" lon="4.71029">
        <ele>305.36</ele>
        <time>2022-11-12T15:25:58Z</time>
      </trkpt>
      <trkpt lat="46.82906" lon="4.71045">
        <ele>304.39</ele>
        <time>2022-11-12T15:26:20Z</time>
      </trkpt>
      <trkpt lat="46.82903" lon="4.71073">
        <ele>302.47</ele>
        <time>2022-11-12T15:26:37Z</time>
      </trkpt>
      <trkpt lat="46.82902" lon="4.71106">
        <ele>300.55</ele>
        <time>2022-11-12T15:26:57Z</time>
      </trkpt>
      <trkpt lat="46.82903" lon="4.7114">
        <ele>298.15</ele>
        <time>2022-11-12T15:27:20Z</time>
      </trkpt>
      <trkpt lat="46.82906" lon="4.71161">
        <ele>297.18</ele>
        <time>2022-11-12T15:27:38Z</time>
      </trkpt>
      <trkpt lat="46.82904" lon="4.7118">
        <ele>296.7</ele>
        <time>2022-11-12T15:27:53Z</time>
      </trkpt>
      <trkpt lat="46.82904" lon="4.71191">
        <ele>296.7</ele>
        <time>2022-11-12T15:28:01Z</time>
      </trkpt>
      <trkpt lat="46.82904" lon="4.7121">
        <ele>295.74</ele>
        <time>2022-11-12T15:28:14Z</time>
      </trkpt>
      <trkpt lat="46.82904" lon="4.71225">
        <ele>295.26</ele>
        <time>2022-11-12T15:28:25Z</time>
      </trkpt>
      <trkpt lat="46.82905" lon="4.71238">
        <ele>294.78</ele>
        <time>2022-11-12T15:28:34Z</time>
      </trkpt>
      <trkpt lat="46.82905" lon="4.71255">
        <ele>294.78</ele>
        <time>2022-11-12T15:28:46Z</time>
      </trkpt>
      <trkpt lat="46.82905" lon="4.71277">
        <ele>294.78</ele>
        <time>2022-11-12T15:29:01Z</time>
      </trkpt>
      <trkpt lat="46.82904" lon="4.71289">
        <ele>294.3</ele>
        <time>2022-11-12T15:29:10Z</time>
      </trkpt>
      <trkpt lat="46.82904" lon="4.71309">
        <ele>293.82</ele>
        <time>2022-11-12T15:29:25Z</time>
      </trkpt>
      <trkpt lat="46.82903" lon="4.71329">
        <ele>293.34</ele>
        <time>2022-11-12T15:29:40Z</time>
      </trkpt>
      <trkpt lat="46.82902" lon="4.7134">
        <ele>292.86</ele>
        <time>2022-11-12T15:29:47Z</time>
      </trkpt>
      <trkpt lat="46.829" lon="4.71356">
        <ele>291.9</ele>
        <time>2022-11-12T15:29:59Z</time>
      </trkpt>
      <trkpt lat="46.829" lon="4.71376">
        <ele>290.46</ele>
        <time>2022-11-12T15:30:15Z</time>
      </trkpt>
      <trkpt lat="46.82899" lon="4.71397">
        <ele>289.97</ele>
        <time>2022-11-12T15:30:28Z</time>
      </trkpt>
      <trkpt lat="46.829" lon="4.71419">
        <ele>289.01</ele>
        <time>2022-11-12T15:30:42Z</time>
      </trkpt>
      <trkpt lat="46.82901" lon="4.71442">
        <ele>288.05</ele>
        <time>2022-11-12T15:30:58Z</time>
      </trkpt>
      <trkpt lat="46.82903" lon="4.71462">
        <ele>287.57</ele>
        <time>2022-11-12T15:31:12Z</time>
      </trkpt>
      <trkpt lat="46.82904" lon="4.71464">
        <ele>287.57</ele>
        <time>2022-11-12T15:31:14Z</time>
      </trkpt>
      <trkpt lat="46.82906" lon="4.71467">
        <ele>287.57</ele>
        <time>2022-11-12T15:31:17Z</time>
      </trkpt>
      <trkpt lat="46.82907" lon="4.7147">
        <ele>287.57</ele>
        <time>2022-11-12T15:31:19Z</time>
      </trkpt>
      <trkpt lat="46.82908" lon="4.71471">
        <ele>287.57</ele>
        <time>2022-11-12T15:31:21Z</time>
      </trkpt>
      <trkpt lat="46.82912" lon="4.71476">
        <ele>287.57</ele>
        <time>2022-11-12T15:31:26Z</time>
      </trkpt>
      <trkpt lat="46.82924" lon="4.71486">
        <ele>289.01</ele>
        <time>2022-11-12T15:31:41Z</time>
      </trkpt>
      <trkpt lat="46.82934" lon="4.7149">
        <ele>289.49</ele>
        <time>2022-11-12T15:31:54Z</time>
      </trkpt>
      <trkpt lat="46.82938" lon="4.71487">
        <ele>289.97</ele>
        <time>2022-11-12T15:32:08Z</time>
      </trkpt>
      <trkpt lat="46.82938" lon="4.71487">
        <ele>290.46</ele>
        <time>2022-11-12T15:32:37Z</time>
      </trkpt>
      <trkpt lat="46.8294" lon="4.71496">
        <ele>290.46</ele>
        <time>2022-11-12T15:33:07Z</time>
      </trkpt>
      <trkpt lat="46.82945" lon="4.71506">
        <ele>290.46</ele>
        <time>2022-11-12T15:33:23Z</time>
      </trkpt>
      <trkpt lat="46.82946" lon="4.71507">
        <ele>290.46</ele>
        <time>2022-11-12T15:33:39Z</time>
      </trkpt>
      <trkpt lat="46.82958" lon="4.71511">
        <ele>290.46</ele>
        <time>2022-11-12T15:33:54Z</time>
      </trkpt>
      <trkpt lat="46.82968" lon="4.71519">
        <ele>289.01</ele>
        <time>2022-11-12T15:34:05Z</time>
      </trkpt>
      <trkpt lat="46.82979" lon="4.71525">
        <ele>288.05</ele>
        <time>2022-11-12T15:34:20Z</time>
      </trkpt>
      <trkpt lat="46.82989" lon="4.71523">
        <ele>286.61</ele>
        <time>2022-11-12T15:34:31Z</time>
      </trkpt>
      <trkpt lat="46.82994" lon="4.71518">
        <ele>285.17</ele>
        <time>2022-11-12T15:34:38Z</time>
      </trkpt>
      <trkpt lat="46.83008" lon="4.71514">
        <ele>282.77</ele>
        <time>2022-11-12T15:34:53Z</time>
      </trkpt>
      <trkpt lat="46.83022" lon="4.71516">
        <ele>279.88</ele>
        <time>2022-11-12T15:35:08Z</time>
      </trkpt>
      <trkpt lat="46.83024" lon="4.71521">
        <ele>278.92</ele>
        <time>2022-11-12T15:35:21Z</time>
      </trkpt>
      <trkpt lat="46.83023" lon="4.71519">
        <ele>278.92</ele>
        <time>2022-11-12T15:35:46Z</time>
      </trkpt>
      <trkpt lat="46.8303" lon="4.71521">
        <ele>278.44</ele>
        <time>2022-11-12T15:35:50Z</time>
      </trkpt>
      <trkpt lat="46.83044" lon="4.71536">
        <ele>275.56</ele>
        <time>2022-11-12T15:36:03Z</time>
      </trkpt>
      <trkpt lat="46.83061" lon="4.71557">
        <ele>271.71</ele>
        <time>2022-11-12T15:36:20Z</time>
      </trkpt>
      <trkpt lat="46.83077" lon="4.71575">
        <ele>269.31</ele>
        <time>2022-11-12T15:36:37Z</time>
      </trkpt>
      <trkpt lat="46.83098" lon="4.71588">
        <ele>265.46</ele>
        <time>2022-11-12T15:36:53Z</time>
      </trkpt>
      <trkpt lat="46.83118" lon="4.71592">
        <ele>262.1</ele>
        <time>2022-11-12T15:37:10Z</time>
      </trkpt>
      <trkpt lat="46.83127" lon="4.71593">
        <ele>261.14</ele>
        <time>2022-11-12T15:37:25Z</time>
      </trkpt>
      <trkpt lat="46.83132" lon="4.71592">
        <ele>260.65</ele>
        <time>2022-11-12T15:37:36Z</time>
      </trkpt>
      <trkpt lat="46.83137" lon="4.71593">
        <ele>260.17</ele>
        <time>2022-11-12T15:37:41Z</time>
      </trkpt>
      <trkpt lat="46.83152" lon="4.71598">
        <ele>257.29</ele>
        <time>2022-11-12T15:37:58Z</time>
      </trkpt>
      <trkpt lat="46.83163" lon="4.71606">
        <ele>255.85</ele>
        <time>2022-11-12T15:38:12Z</time>
      </trkpt>
      <trkpt lat="46.83176" lon="4.71614">
        <ele>254.41</ele>
        <time>2022-11-12T15:38:28Z</time>
      </trkpt>
      <trkpt lat="46.83189" lon="4.71621">
        <ele>252.96</ele>
        <time>2022-11-12T15:38:43Z</time>
      </trkpt>
      <trkpt lat="46.83203" lon="4.7163">
        <ele>250.56</ele>
        <time>2022-11-12T15:39:00Z</time>
      </trkpt>
      <trkpt lat="46.83217" lon="4.71637">
        <ele>248.64</ele>
        <time>2022-11-12T15:39:17Z</time>
      </trkpt>
      <trkpt lat="46.8323" lon="4.71642">
        <ele>247.2</ele>
        <time>2022-11-12T15:39:33Z</time>
      </trkpt>
      <trkpt lat="46.83244" lon="4.71648">
        <ele>245.27</ele>
        <time>2022-11-12T15:39:49Z</time>
      </trkpt>
      <trkpt lat="46.83257" lon="4.71653">
        <ele>243.83</ele>
        <time>2022-11-12T15:40:05Z</time>
      </trkpt>
      <trkpt lat="46.83272" lon="4.71659">
        <ele>241.91</ele>
        <time>2022-11-12T15:40:21Z</time>
      </trkpt>
      <trkpt lat="46.83274" lon="4.7166">
        <ele>241.91</ele>
        <time>2022-11-12T15:40:24Z</time>
      </trkpt>
      <trkpt lat="46.83287" lon="4.71668">
        <ele>239.99</ele>
        <time>2022-11-12T15:40:39Z</time>
      </trkpt>
      <trkpt lat="46.83289" lon="4.71669">
        <ele>239.99</ele>
        <time>2022-11-12T15:40:41Z</time>
      </trkpt>
      <trkpt lat="46.833" lon="4.71677">
        <ele>238.54</ele>
        <time>2022-11-12T15:40:55Z</time>
      </trkpt>
      <trkpt lat="46.83306" lon="4.71683">
        <ele>238.06</ele>
        <time>2022-11-12T15:41:03Z</time>
      </trkpt>
      <trkpt lat="46.83319" lon="4.71696">
        <ele>236.62</ele>
        <time>2022-11-12T15:41:20Z</time>
      </trkpt>
      <trkpt lat="46.83329" lon="4.71709">
        <ele>235.66</ele>
        <time>2022-11-12T15:41:35Z</time>
      </trkpt>
      <trkpt lat="46.83342" lon="4.7172">
        <ele>235.18</ele>
        <time>2022-11-12T15:41:50Z</time>
      </trkpt>
      <trkpt lat="46.83344" lon="4.71722">
        <ele>235.18</ele>
        <time>2022-11-12T15:41:52Z</time>
      </trkpt>
      <trkpt lat="46.83348" lon="4.71724">
        <ele>234.7</ele>
        <time>2022-11-12T15:41:56Z</time>
      </trkpt>
      <trkpt lat="46.8335" lon="4.71726">
        <ele>234.7</ele>
        <time>2022-11-12T15:41:59Z</time>
      </trkpt>
      <trkpt lat="46.83364" lon="4.71733">
        <ele>234.7</ele>
        <time>2022-11-12T15:42:15Z</time>
      </trkpt>
      <trkpt lat="46.83378" lon="4.71739">
        <ele>234.22</ele>
        <time>2022-11-12T15:42:31Z</time>
      </trkpt>
      <trkpt lat="46.83392" lon="4.71745">
        <ele>233.74</ele>
        <time>2022-11-12T15:42:46Z</time>
      </trkpt>
      <trkpt lat="46.83406" lon="4.71747">
        <ele>233.26</ele>
        <time>2022-11-12T15:43:01Z</time>
      </trkpt>
      <trkpt lat="46.83412" lon="4.71751">
        <ele>233.26</ele>
        <time>2022-11-12T15:43:15Z</time>
      </trkpt>
      <trkpt lat="46.83412" lon="4.71753">
        <ele>233.74</ele>
        <time>2022-11-12T15:43:20Z</time>
      </trkpt>
      <trkpt lat="46.8341" lon="4.7176">
        <ele>232.78</ele>
        <time>2022-11-12T15:43:26Z</time>
      </trkpt>
      <trkpt lat="46.83401" lon="4.71772">
        <ele>232.78</ele>
        <time>2022-11-12T15:43:40Z</time>
      </trkpt>
      <trkpt lat="46.83393" lon="4.71783">
        <ele>232.3</ele>
        <time>2022-11-12T15:43:53Z</time>
      </trkpt>
      <trkpt lat="46.83384" lon="4.71797">
        <ele>232.3</ele>
        <time>2022-11-12T15:44:07Z</time>
      </trkpt>
      <trkpt lat="46.83374" lon="4.71813">
        <ele>232.3</ele>
        <time>2022-11-12T15:44:23Z</time>
      </trkpt>
      <trkpt lat="46.83361" lon="4.71834">
        <ele>232.3</ele>
        <time>2022-11-12T15:44:41Z</time>
      </trkpt>
      <trkpt lat="46.83355" lon="4.71855">
        <ele>232.3</ele>
        <time>2022-11-12T15:44:57Z</time>
      </trkpt>
      <trkpt lat="46.83354" lon="4.71858">
        <ele>232.3</ele>
        <time>2022-11-12T15:44:59Z</time>
      </trkpt>
      <trkpt lat="46.83347" lon="4.71876">
        <ele>232.3</ele>
        <time>2022-11-12T15:45:14Z</time>
      </trkpt>
      <trkpt lat="46.83346" lon="4.7188">
        <ele>232.3</ele>
        <time>2022-11-12T15:45:17Z</time>
      </trkpt>
      <trkpt lat="46.83333" lon="4.71907">
        <ele>232.3</ele>
        <time>2022-11-12T15:45:39Z</time>
      </trkpt>
      <trkpt lat="46.83322" lon="4.7193">
        <ele>232.3</ele>
        <time>2022-11-12T15:45:58Z</time>
      </trkpt>
      <trkpt lat="46.8331" lon="4.71947">
        <ele>232.3</ele>
        <time>2022-11-12T15:46:13Z</time>
      </trkpt>
      <trkpt lat="46.83297" lon="4.71969">
        <ele>232.3</ele>
        <time>2022-11-12T15:46:34Z</time>
      </trkpt>
      <trkpt lat="46.83292" lon="4.71984">
        <ele>232.3</ele>
        <time>2022-11-12T15:46:49Z</time>
      </trkpt>
      <trkpt lat="46.83284" lon="4.72004">
        <ele>232.3</ele>
        <time>2022-11-12T15:47:03Z</time>
      </trkpt>
      <trkpt lat="46.83276" lon="4.72027">
        <ele>233.26</ele>
        <time>2022-11-12T15:47:19Z</time>
      </trkpt>
      <trkpt lat="46.83265" lon="4.72057">
        <ele>233.26</ele>
        <time>2022-11-12T15:47:38Z</time>
      </trkpt>
      <trkpt lat="46.83258" lon="4.72089">
        <ele>232.3</ele>
        <time>2022-11-12T15:47:59Z</time>
      </trkpt>
      <trkpt lat="46.83258" lon="4.72091">
        <ele>232.3</ele>
        <time>2022-11-12T15:48:00Z</time>
      </trkpt>
      <trkpt lat="46.83275" lon="4.72102">
        <ele>231.33</ele>
        <time>2022-11-12T15:48:17Z</time>
      </trkpt>
      <trkpt lat="46.83297" lon="4.72113">
        <ele>230.37</ele>
        <time>2022-11-12T15:48:41Z</time>
      </trkpt>
      <trkpt lat="46.83315" lon="4.72119">
        <ele>229.41</ele>
        <time>2022-11-12T15:48:59Z</time>
      </trkpt>
      <trkpt lat="46.83334" lon="4.72127">
        <ele>228.45</ele>
        <time>2022-11-12T15:49:17Z</time>
      </trkpt>
      <trkpt lat="46.83352" lon="4.72135">
        <ele>227.97</ele>
        <time>2022-11-12T15:49:34Z</time>
      </trkpt>
      <trkpt lat="46.83363" lon="4.72144">
        <ele>227.01</ele>
        <time>2022-11-12T15:49:51Z</time>
      </trkpt>
      <trkpt lat="46.83365" lon="4.72145">
        <ele>227.01</ele>
        <time>2022-11-12T15:50:09Z</time>
      </trkpt>
    </trkseg>
  </trk>
</gpx>